createdAt,value
2023-04-01T00:01:01.679Z,10.60
2023-04-01T00:03:30.506Z,10.60
2023-04-01T00:05:59.971Z,10.60
2023-04-01T00:08:27.767Z,10.60
2023-04-01T00:10:55.464Z,10.70
2023-04-01T00:13:22.838Z,10.60
2023-04-01T00:15:50.589Z,10.60
2023-04-01T00:18:17.900Z,10.60
2023-04-01T00:20:46.241Z,10.60
2023-04-01T00:23:15.448Z,10.60
2023-04-01T00:25:43.172Z,10.60
2023-04-01T00:28:10.646Z,10.60
2023-04-01T00:30:38.556Z,10.60
2023-04-01T00:33:05.961Z,10.60
2023-04-01T00:35:33.494Z,10.60
2023-04-01T00:38:01.238Z,10.60
2023-04-01T00:40:32.298Z,10.60
2023-04-01T00:42:59.972Z,10.60
2023-04-01T00:45:31.632Z,10.60
2023-04-01T00:48:02.935Z,10.70
2023-04-01T00:50:31.369Z,10.70
2023-04-01T00:53:00.161Z,10.70
2023-04-01T00:55:32.683Z,10.70
2023-04-01T00:58:02.905Z,10.70
2023-04-01T01:00:30.495Z,10.70
2023-04-01T01:02:57.722Z,10.70
2023-04-01T01:05:48.157Z,10.60
2023-04-01T01:08:26.383Z,10.70
2023-04-01T01:10:54.949Z,10.70
2023-04-01T01:13:31.945Z,10.70
2023-04-01T01:16:07.436Z,10.60
2023-04-01T01:18:40.208Z,10.60
2023-04-01T01:21:33.672Z,10.70
2023-04-01T01:24:33.549Z,10.70
2023-04-01T01:27:05.720Z,10.60
2023-04-01T01:30:05.364Z,10.60
2023-04-01T01:33:03.460Z,10.60
2023-04-01T01:35:36.424Z,10.70
2023-04-01T01:38:13.666Z,10.70
2023-04-01T01:40:46.747Z,10.70
2023-04-01T01:43:19.012Z,10.70
2023-04-01T01:45:51.592Z,10.60
2023-04-01T01:48:20.825Z,10.70
2023-04-01T01:50:50.737Z,10.70
2023-04-01T01:53:18.995Z,10.60
2023-04-01T01:55:48.231Z,10.60
2023-04-01T01:58:20.605Z,10.70
2023-04-01T02:00:51.801Z,10.70
2023-04-01T02:03:21.853Z,10.70
2023-04-01T02:05:52.527Z,10.60
2023-04-01T02:08:24.540Z,10.70
2023-04-01T02:10:58.679Z,10.70
2023-04-01T02:13:34.863Z,10.70
2023-04-01T02:16:08.449Z,10.70
2023-04-01T02:18:39.138Z,10.70
2023-04-01T02:21:10.323Z,10.70
2023-04-01T02:23:39.055Z,10.70
2023-04-01T02:26:08.610Z,10.70
2023-04-01T02:28:39.193Z,10.70
2023-04-01T02:31:07.066Z,10.70
2023-04-01T02:33:34.673Z,10.70
2023-04-01T02:36:01.922Z,10.70
2023-04-01T02:38:30.512Z,10.60
2023-04-01T02:41:01.012Z,10.70
2023-04-01T02:43:28.380Z,10.70
2023-04-01T02:45:55.694Z,10.70
2023-04-01T02:48:22.997Z,10.70
2023-04-01T02:50:50.478Z,10.70
2023-04-01T02:53:18.259Z,10.70
2023-04-01T02:55:47.046Z,10.70
2023-04-01T02:58:14.275Z,10.70
2023-04-01T03:00:41.509Z,10.70
2023-04-01T03:03:09.161Z,10.70
2023-04-01T03:05:36.449Z,10.70
2023-04-01T03:08:04.174Z,10.70
2023-04-01T03:10:31.393Z,10.70
2023-04-01T03:12:59.975Z,10.70
2023-04-01T03:15:27.504Z,10.70
2023-04-01T03:17:55.635Z,10.80
2023-04-01T03:20:22.879Z,10.70
2023-04-01T03:22:50.906Z,10.70
2023-04-01T03:25:19.243Z,10.70
2023-04-01T03:27:46.461Z,10.70
2023-04-01T03:30:15.306Z,10.70
2023-04-01T03:32:50.357Z,10.70
2023-04-01T03:35:17.837Z,10.70
2023-04-01T03:37:46.651Z,10.80
2023-04-01T03:40:13.891Z,10.70
2023-04-01T03:42:41.243Z,10.70
2023-04-01T03:45:09.823Z,10.70
2023-04-01T03:47:38.559Z,10.70
2023-04-01T03:50:08.198Z,10.70
2023-04-01T03:52:35.694Z,10.70
2023-04-01T03:55:03.229Z,10.70
2023-04-01T03:57:32.058Z,10.70
2023-04-01T04:00:05.825Z,10.70
2023-04-01T04:02:42.368Z,10.70
2023-04-01T04:05:11.810Z,10.70
2023-04-01T04:07:39.309Z,10.60
2023-04-01T04:10:09.289Z,10.70
2023-04-01T04:12:36.669Z,10.70
2023-04-01T04:15:04.476Z,10.70
2023-04-01T04:17:31.692Z,10.70
2023-04-01T04:20:00.442Z,10.70
2023-04-01T04:22:27.686Z,10.70
2023-04-01T04:24:55.366Z,10.70
2023-04-01T04:27:22.709Z,10.70
2023-04-01T04:30:08.390Z,10.70
2023-04-01T04:32:36.529Z,10.70
2023-04-01T04:35:07.422Z,10.70
2023-04-01T04:37:35.325Z,10.70
2023-04-01T04:40:02.783Z,10.70
2023-04-01T04:42:31.187Z,10.70
2023-04-01T04:45:05.152Z,10.70
2023-04-01T04:47:32.842Z,10.80
2023-04-01T04:50:00.355Z,10.80
2023-04-01T04:52:28.862Z,10.80
2023-04-01T04:54:56.188Z,10.80
2023-04-01T04:57:23.688Z,10.70
2023-04-01T04:59:55.362Z,10.80
2023-04-01T05:02:43.297Z,10.70
2023-04-01T05:05:11.348Z,10.70
2023-04-01T05:07:39.861Z,10.70
2023-04-01T05:10:07.883Z,10.80
2023-04-01T05:12:38.318Z,10.80
2023-04-01T05:15:08.374Z,10.80
2023-04-01T05:17:35.659Z,10.80
2023-04-01T05:20:05.843Z,10.80
2023-04-01T05:22:33.145Z,10.80
2023-04-01T05:25:01.669Z,10.80
2023-04-01T05:27:29.710Z,10.80
2023-04-01T05:29:57.379Z,10.80
2023-04-01T05:32:39.239Z,10.80
2023-04-01T05:35:07.554Z,10.80
2023-04-01T05:37:35.497Z,10.80
2023-04-01T05:40:06.900Z,10.80
2023-04-01T05:42:36.103Z,10.80
2023-04-01T05:45:05.648Z,10.80
2023-04-01T05:48:10.620Z,10.80
2023-04-01T05:50:42.338Z,10.80
2023-04-01T05:53:10.973Z,10.80
2023-04-01T05:55:41.672Z,10.80
2023-04-01T05:58:09.004Z,10.90
2023-04-01T06:00:39.595Z,10.90
2023-04-01T06:03:07.010Z,10.90
2023-04-01T06:05:40.304Z,10.90
2023-04-01T06:08:12.171Z,10.90
2023-04-01T06:10:53.932Z,10.90
2023-04-01T06:13:35.249Z,10.90
2023-04-01T06:16:11.344Z,10.90
2023-04-01T06:18:51.326Z,10.90
2023-04-01T06:21:35.133Z,10.90
2023-04-01T06:24:22.672Z,10.90
2023-04-01T06:26:58.745Z,11.00
2023-04-01T06:29:51.032Z,11.00
2023-04-01T06:32:48.456Z,11.00
2023-04-01T06:35:29.020Z,11.00
2023-04-01T06:38:14.385Z,11.00
2023-04-01T06:41:07.781Z,11.00
2023-04-01T06:43:50.449Z,11.00
2023-04-01T06:46:49.345Z,11.00
2023-04-01T06:49:50.353Z,11.10
2023-04-01T06:52:48.413Z,11.00
2023-04-01T06:55:39.603Z,11.00
2023-04-01T06:58:42.487Z,11.10
2023-04-01T07:01:15.875Z,11.10
2023-04-01T07:03:48.641Z,11.10
2023-04-01T07:06:26.630Z,11.10
2023-04-01T07:09:03.536Z,11.10
2023-04-01T07:11:54.268Z,11.10
2023-04-01T07:15:06.879Z,11.10
2023-04-01T07:17:37.536Z,11.10
2023-04-01T07:20:12.129Z,11.20
2023-04-01T07:22:42.543Z,11.20
2023-04-01T07:25:26.168Z,11.20
2023-04-01T07:28:14.451Z,11.20
2023-04-01T07:30:59.835Z,11.20
2023-04-01T07:33:37.265Z,11.20
2023-04-01T07:36:11.549Z,11.20
2023-04-01T07:38:51.715Z,11.20
2023-04-01T07:41:42.904Z,11.20
2023-04-01T07:44:20.485Z,11.30
2023-04-01T07:46:59.985Z,11.20
2023-04-01T07:49:35.390Z,11.30
2023-04-01T07:52:07.219Z,11.30
2023-04-01T07:54:42.495Z,11.30
2023-04-01T07:57:16.713Z,11.30
2023-04-01T07:59:59.077Z,11.30
2023-04-01T08:02:55.297Z,11.40
2023-04-01T08:05:31.961Z,11.40
2023-04-01T08:08:10.414Z,11.50
2023-04-01T08:11:03.473Z,11.50
2023-04-01T08:13:59.729Z,11.60
2023-04-01T08:16:59.298Z,11.60
2023-04-01T08:19:57.271Z,11.60
2023-04-01T08:22:31.862Z,11.70
2023-04-01T08:25:05.151Z,11.70
2023-04-01T08:27:37.963Z,11.70
2023-04-01T08:30:18.484Z,11.70
2023-04-01T08:32:51.183Z,11.60
2023-04-01T08:35:29.833Z,11.60
2023-04-01T08:38:06.143Z,11.50
2023-04-01T08:40:57.399Z,11.50
2023-04-01T08:43:46.649Z,11.30
2023-04-01T08:46:29.867Z,11.30
2023-04-01T08:49:23.711Z,11.30
2023-04-01T08:52:23.904Z,11.30
2023-04-01T08:55:16.663Z,11.30
2023-04-01T08:58:22.403Z,11.30
2023-04-01T09:01:04.944Z,11.30
2023-04-01T09:03:49.497Z,11.30
2023-04-01T09:06:32.901Z,11.20
2023-04-01T09:09:28.191Z,11.30
2023-04-01T09:12:22.749Z,11.30
2023-04-01T09:15:17.920Z,11.30
2023-04-01T09:18:13.181Z,11.40
2023-04-01T09:20:52.313Z,11.40
2023-04-01T09:23:48.482Z,11.40
2023-04-01T09:26:39.248Z,11.40
2023-04-01T09:29:19.567Z,11.40
2023-04-01T09:32:12.749Z,11.50
2023-04-01T09:34:55.628Z,11.50
2023-04-01T09:37:36.229Z,11.40
2023-04-01T09:40:19.155Z,11.30
2023-04-01T09:43:18.969Z,11.20
2023-04-01T09:45:59.836Z,11.20
2023-04-01T09:48:56.481Z,11.20
2023-04-01T09:51:33.075Z,11.20
2023-04-01T09:54:14.579Z,11.20
2023-04-01T09:57:11.545Z,11.10
2023-04-01T10:00:08.605Z,11.00
2023-04-01T10:03:32.793Z,11.10
2023-04-01T10:06:20.952Z,11.00
2023-04-01T10:09:32.854Z,10.80
2023-04-01T10:12:36.554Z,10.70
2023-04-01T10:15:35.854Z,10.60
2023-04-01T10:18:25.387Z,10.60
2023-04-01T10:21:08.370Z,10.60
2023-04-01T10:24:01.117Z,10.60
2023-04-01T10:27:03.084Z,10.70
2023-04-01T10:30:32.862Z,10.80
2023-04-01T10:33:36.722Z,10.90
2023-04-01T10:36:33.677Z,10.90
2023-04-01T10:39:31.468Z,10.80
2023-04-01T10:42:50.869Z,10.80
2023-04-01T10:46:02.886Z,10.70
2023-04-01T10:48:56.371Z,10.80
2023-04-01T10:51:51.083Z,10.70
2023-04-01T10:54:46.448Z,10.70
2023-04-01T10:58:14.044Z,10.60
2023-04-01T11:01:52.588Z,10.70
2023-04-01T11:05:34.874Z,10.70
2023-04-01T11:08:47.416Z,10.60
2023-04-01T11:11:39.546Z,10.60
2023-04-01T11:14:51.790Z,10.70
2023-04-01T11:17:51.783Z,10.70
2023-04-01T11:20:49.694Z,10.70
2023-04-01T11:23:30.431Z,10.60
2023-04-01T11:26:09.351Z,10.60
2023-04-01T11:29:29.035Z,10.50
2023-04-01T11:32:13.397Z,10.60
2023-04-01T11:34:58.048Z,10.70
2023-04-01T11:37:40.027Z,10.70
2023-04-01T11:40:49.924Z,10.60
2023-04-01T11:43:40.945Z,10.70
2023-04-01T11:46:33.857Z,10.60
2023-04-01T11:49:08.631Z,10.60
2023-04-01T11:51:56.584Z,10.60
2023-04-01T11:54:37.515Z,10.50
2023-04-01T11:57:36.082Z,10.50
2023-04-01T12:00:21.996Z,10.50
2023-04-01T12:03:08.010Z,10.50
2023-04-01T12:05:43.679Z,10.50
2023-04-01T12:08:20.282Z,10.30
2023-04-01T12:10:56.705Z,10.20
2023-04-01T12:13:36.753Z,10.20
2023-04-01T12:16:14.560Z,10.30
2023-04-01T12:18:49.134Z,10.30
2023-04-01T12:21:25.718Z,10.30
2023-04-01T12:24:12.354Z,10.20
2023-04-01T12:27:00.610Z,10.20
2023-04-01T12:29:51.382Z,10.20
2023-04-01T12:32:27.019Z,10.20
2023-04-01T12:35:07.232Z,10.20
2023-04-01T12:37:43.014Z,10.20
2023-04-01T12:40:46.127Z,10.30
2023-04-01T12:43:35.445Z,10.30
2023-04-01T12:46:16.181Z,10.30
2023-04-01T12:49:16.468Z,10.20
2023-04-01T12:52:08.244Z,10.20
2023-04-01T12:55:24.286Z,10.10
2023-04-01T12:58:28.884Z,10.00
2023-04-01T13:01:38.164Z,10.10
2023-04-01T13:04:30.615Z,10.10
2023-04-01T13:07:12.835Z,10.00
2023-04-01T13:09:52.491Z,10.00
2023-04-01T13:12:35.431Z,9.90
2023-04-01T13:15:17.617Z,9.80
2023-04-01T13:17:53.191Z,9.80
2023-04-01T13:20:29.206Z,9.70
2023-04-01T13:23:07.844Z,9.70
2023-04-01T13:25:44.537Z,9.60
2023-04-01T13:28:18.249Z,9.50
2023-04-01T13:30:53.102Z,9.50
2023-04-01T13:33:33.355Z,9.60
2023-04-01T13:36:17.075Z,9.50
2023-04-01T13:39:07.584Z,9.50
2023-04-01T13:41:48.733Z,9.50
2023-04-01T13:44:22.689Z,9.40
2023-04-01T13:47:07.312Z,9.50
2023-04-01T13:50:06.210Z,9.50
2023-04-01T13:53:03.656Z,9.50
2023-04-01T13:55:47.725Z,9.40
2023-04-01T13:58:47.838Z,9.50
2023-04-01T14:01:22.744Z,9.60
2023-04-01T14:04:05.739Z,9.60
2023-04-01T14:06:47.192Z,9.60
2023-04-01T14:09:35.282Z,9.70
2023-04-01T14:12:07.007Z,9.70
2023-04-01T14:14:54.754Z,9.70
2023-04-01T14:17:45.639Z,9.80
2023-04-01T14:20:28.711Z,9.70
2023-04-01T14:23:21.001Z,9.60
2023-04-01T14:26:03.947Z,9.60
2023-04-01T14:28:37.460Z,9.60
2023-04-01T14:31:28.036Z,9.60
2023-04-01T14:34:07.224Z,9.50
2023-04-01T14:36:50.239Z,9.40
2023-04-01T14:39:34.871Z,9.30
2023-04-01T14:42:22.074Z,9.20
2023-04-01T14:45:02.808Z,9.10
2023-04-01T14:47:43.231Z,9.10
2023-04-01T14:50:14.619Z,9.10
2023-04-01T14:52:46.327Z,9.00
2023-04-01T14:55:28.247Z,9.00
2023-04-01T14:58:10.033Z,9.10
2023-04-01T15:00:50.817Z,9.20
2023-04-01T15:03:25.798Z,9.10
2023-04-01T15:06:01.815Z,9.00
2023-04-01T15:08:33.587Z,8.80
2023-04-01T15:11:17.594Z,8.80
2023-04-01T15:14:02.758Z,8.80
2023-04-01T15:16:40.661Z,8.80
2023-04-01T15:19:20.419Z,8.90
2023-04-01T15:21:58.921Z,8.90
2023-04-01T15:24:30.155Z,8.90
2023-04-01T15:27:18.532Z,8.90
2023-04-01T15:30:05.608Z,8.90
2023-04-01T15:32:47.347Z,8.90
2023-04-01T15:35:24.881Z,8.90
2023-04-01T15:37:57.140Z,8.90
2023-04-01T15:40:30.516Z,8.90
2023-04-01T15:43:12.645Z,8.80
2023-04-01T15:45:49.998Z,8.80
2023-04-01T15:48:30.929Z,8.80
2023-04-01T15:51:12.404Z,8.80
2023-04-01T15:54:04.345Z,8.60
2023-04-01T15:56:47.938Z,8.50
2023-04-01T15:59:30.177Z,8.50
2023-04-01T16:02:07.987Z,8.40
2023-04-01T16:04:51.698Z,8.40
2023-04-01T16:07:49.631Z,8.40
2023-04-01T16:10:45.368Z,8.30
2023-04-01T16:13:27.584Z,8.20
2023-04-01T16:16:06.247Z,8.10
2023-04-01T16:18:44.884Z,8.20
2023-04-01T16:21:25.688Z,8.10
2023-04-01T16:23:57.538Z,8.10
2023-04-01T16:26:29.734Z,8.20
2023-04-01T16:29:06.337Z,8.20
2023-04-01T16:31:44.356Z,8.00
2023-04-01T16:34:18.305Z,8.10
2023-04-01T16:36:48.664Z,8.10
2023-04-01T16:39:28.447Z,8.00
2023-04-01T16:42:14.496Z,8.00
2023-04-01T16:44:50.341Z,7.90
2023-04-01T16:47:22.503Z,8.00
2023-04-01T16:49:55.718Z,7.80
2023-04-01T16:52:37.306Z,7.80
2023-04-01T16:55:16.254Z,7.80
2023-04-01T16:57:49.624Z,7.70
2023-04-01T17:00:24.463Z,7.50
2023-04-01T17:03:04.942Z,7.50
2023-04-01T17:05:45.871Z,7.40
2023-04-01T17:08:23.629Z,7.40
2023-04-01T17:10:59.086Z,7.40
2023-04-01T17:13:39.916Z,7.40
2023-04-01T17:16:37.294Z,7.30
2023-04-01T17:19:23.865Z,7.10
2023-04-01T17:22:02.449Z,7.10
2023-04-01T17:24:48.796Z,7.10
2023-04-01T17:27:30.165Z,7.00
2023-04-01T17:30:11.477Z,7.00
2023-04-01T17:32:53.028Z,7.10
2023-04-01T17:35:27.272Z,7.00
2023-04-01T17:38:07.542Z,6.90
2023-04-01T17:40:52.451Z,6.90
2023-04-01T17:43:31.122Z,7.10
2023-04-01T17:46:06.328Z,7.10
2023-04-01T17:48:43.232Z,7.10
2023-04-01T17:51:23.240Z,7.10
2023-04-01T17:54:01.225Z,7.10
2023-04-01T17:56:44.241Z,7.00
2023-04-01T17:59:23.413Z,6.80
2023-04-01T18:02:02.181Z,6.80
2023-04-01T18:04:44.302Z,6.70
2023-04-01T18:07:34.179Z,6.50
2023-04-01T18:10:17.759Z,6.60
2023-04-01T18:13:12.721Z,6.50
2023-04-01T18:15:46.122Z,6.50
2023-04-01T18:18:33.118Z,6.40
2023-04-01T18:21:08.348Z,6.40
2023-04-01T18:23:44.569Z,6.40
2023-04-01T18:26:22.457Z,6.50
2023-04-01T18:28:56.542Z,6.40
2023-04-01T18:31:26.053Z,6.40
2023-04-01T18:33:59.272Z,6.30
2023-04-01T18:36:38.439Z,6.30
2023-04-01T18:39:13.743Z,6.20
2023-04-01T18:41:52.604Z,6.30
2023-04-01T18:44:37.281Z,6.40
2023-04-01T18:47:16.633Z,6.50
2023-04-01T18:49:51.333Z,6.40
2023-04-01T18:52:23.680Z,6.30
2023-04-01T18:55:11.674Z,6.30
2023-04-01T18:57:43.091Z,6.30
2023-04-01T19:00:19.708Z,6.30
2023-04-01T19:02:52.334Z,6.20
2023-04-01T19:05:24.346Z,6.20
2023-04-01T19:07:53.078Z,6.20
2023-04-01T19:10:31.886Z,6.10
2023-04-01T19:13:13.651Z,6.10
2023-04-01T19:15:44.965Z,6.20
2023-04-01T19:18:41.271Z,6.10
2023-04-01T19:21:14.913Z,6.20
2023-04-01T19:24:26.505Z,6.10
2023-04-01T19:27:02.026Z,6.00
2023-04-01T19:29:45.469Z,6.00
2023-04-01T19:32:23.293Z,6.00
2023-04-01T19:34:58.256Z,5.90
2023-04-01T19:37:39.579Z,5.90
2023-04-01T19:40:20.767Z,6.00
2023-04-01T19:42:59.822Z,5.90
2023-04-01T19:45:36.799Z,5.80
2023-04-01T19:48:13.298Z,5.90
2023-04-01T19:50:48.144Z,5.80
2023-04-01T19:53:22.460Z,5.80
2023-04-01T19:55:53.842Z,5.70
2023-04-01T19:58:27.200Z,5.80
2023-04-01T20:00:58.414Z,5.90
2023-04-01T20:03:35.333Z,5.80
2023-04-01T20:06:09.124Z,5.80
2023-04-01T20:08:42.868Z,5.80
2023-04-01T20:11:31.553Z,5.70
2023-04-01T20:14:10.534Z,5.80
2023-04-01T20:17:02.384Z,5.70
2023-04-01T20:19:36.072Z,5.60
2023-04-01T20:22:06.224Z,5.70
2023-04-01T20:24:38.570Z,5.50
2023-04-01T20:27:10.902Z,5.50
2023-04-01T20:29:48.171Z,5.50
2023-04-01T20:32:46.484Z,5.60
2023-04-01T20:35:46.775Z,5.60
2023-04-01T20:38:46.290Z,5.50
2023-04-01T20:41:24.381Z,5.50
2023-04-01T20:44:01.883Z,5.40
2023-04-01T20:46:38.519Z,5.40
2023-04-01T20:49:25.648Z,5.30
2023-04-01T20:51:55.761Z,5.20
2023-04-01T20:54:39.058Z,5.20
2023-04-01T20:57:10.598Z,5.20
2023-04-01T21:00:04.475Z,5.20
2023-04-01T21:02:49.237Z,5.10
2023-04-01T21:05:41.388Z,5.10
2023-04-01T21:08:18.765Z,5.10
2023-04-01T21:10:57.510Z,5.00
2023-04-01T21:13:37.744Z,4.90
2023-04-01T21:16:17.767Z,4.80
2023-04-01T21:19:02.326Z,4.80
2023-04-01T21:21:47.520Z,4.90
2023-04-01T21:25:04.199Z,4.80
2023-04-01T21:27:48.238Z,4.80
2023-04-01T21:30:36.807Z,4.70
2023-04-01T21:33:17.331Z,4.70
2023-04-01T21:35:56.052Z,4.70
2023-04-01T21:38:39.000Z,4.70
2023-04-01T21:41:25.405Z,4.70
2023-04-01T21:44:23.250Z,4.70
2023-04-01T21:47:14.537Z,4.70
2023-04-01T21:49:54.140Z,4.70
2023-04-01T21:52:39.141Z,4.70
2023-04-01T21:55:41.360Z,4.70
2023-04-01T21:58:48.093Z,4.60
2023-04-01T22:01:34.601Z,4.70
2023-04-01T22:04:19.209Z,4.50
2023-04-01T22:06:49.573Z,4.60
2023-04-01T22:09:25.487Z,4.60
2023-04-01T22:12:02.308Z,4.50
2023-04-01T22:14:41.208Z,4.60
2023-04-01T22:17:17.852Z,4.50
2023-04-01T22:19:55.117Z,4.50
2023-04-01T22:22:27.030Z,4.50
2023-04-01T22:25:05.910Z,4.60
2023-04-01T22:27:42.529Z,4.60
2023-04-01T22:30:16.777Z,4.40
2023-04-01T22:32:47.491Z,4.40
2023-04-01T22:35:28.659Z,4.40
2023-04-01T22:38:03.937Z,4.60
2023-04-01T22:40:39.511Z,4.50
2023-04-01T22:43:10.796Z,4.50
2023-04-01T22:46:04.087Z,4.50
2023-04-01T22:48:39.396Z,4.40
2023-04-01T22:51:16.501Z,4.40
2023-04-01T22:53:57.339Z,4.30
2023-04-01T22:56:31.354Z,4.30
2023-04-01T22:59:05.729Z,4.30
2023-04-01T23:01:40.527Z,4.20
2023-04-01T23:04:12.953Z,4.30
2023-04-01T23:06:47.601Z,4.30
2023-04-01T23:09:18.156Z,4.30
2023-04-01T23:11:52.679Z,4.30
2023-04-01T23:14:44.483Z,4.40
2023-04-01T23:17:32.868Z,4.30
2023-04-01T23:20:08.130Z,4.20
2023-04-01T23:22:42.615Z,4.10
2023-04-01T23:25:23.803Z,4.10
2023-04-01T23:27:58.996Z,4.00
2023-04-01T23:30:48.480Z,4.10
2023-04-01T23:33:22.569Z,4.10
2023-04-01T23:35:50.453Z,4.20
2023-04-01T23:38:19.073Z,4.10
2023-04-01T23:40:50.646Z,4.10
2023-04-01T23:43:25.291Z,4.00
2023-04-01T23:45:53.395Z,4.00
2023-04-01T23:48:25.948Z,4.10
2023-04-01T23:50:53.196Z,4.10
2023-04-01T23:53:24.743Z,4.10
2023-04-01T23:55:52.991Z,4.10
2023-04-01T23:58:24.588Z,4.10
